• Join FlightAware (Why Join?)
  • Login
  • US Flag 
07:38PM EDT


 

Airport Tracker/Info


-or-


 

Live Flight TrackerFlight Track Log ✈ FIN368 ✈ 21-Oct-2013 ✈ EFOU / OUL - EFHK / HEL

Flight Track Log - Related Links

Times and Time Zones

All times are in EDT time to prevent confusion due to time zone crossing. See the FIN368 flight status page for this flight to view local times or setup timezone preferences in your user account.

Time Position Orientation Groundspeed Altitude Reporting Facility
EDT Latitude Longitude Course Direction KTS MPH feet Rate Location/Type
10:47AM 64.4805 25.3107 182° South  Level Estimated
10:48AM 64.3681 25.2999 182° South  Level Estimated
10:49AM 64.2557 25.2893 182° South  Level Estimated
10:50AM 64.1433 25.2787 182° South  Level Estimated
10:51AM 64.0309 25.2682 182° South  Level Estimated
10:52AM 63.9185 25.2578 182° South  Level Estimated
10:53AM 63.8061 25.2475 182° South  Level Estimated
10:54AM 63.6937 25.2373 182° South  Level Estimated
10:55AM 63.5813 25.2271 182° South  Level Estimated
10:56AM 63.4689 25.2170 182° South  Level Estimated
10:57AM 63.3565 25.2070 182° South  Level Estimated
10:58AM 63.2441 25.1971 182° South  Level Estimated
10:59AM 63.1317 25.1873 182° South  Level Estimated
11:00AM 63.0193 25.1775 182° South  Level Estimated
11:01AM 62.9069 25.1678 182° South  Level Estimated
11:02AM 62.7945 25.1582 182° South  Level Estimated
11:03AM 62.6821 25.1486 182° South  Level Estimated
11:04AM 62.5697 25.1392 182° South  Level Estimated
11:05AM 62.4573 25.1298 182° South  Level Estimated
11:06AM 62.3449 25.1204 182° South  Level Estimated
11:07AM 62.2325 25.1112 182° South  Level Estimated
11:08AM 62.1201 25.1020 182° South  Level Estimated
11:09AM 62.0077 25.0929 182° South  Level Estimated
11:10AM 61.8953 25.0838 182° South  Level Estimated
11:11AM 61.7829 25.0748 182° South  Level Estimated
11:12AM 61.6705 25.0659 182° South  Level Estimated
11:13AM 61.5581 25.0570 182° South  Level Estimated
11:14AM 61.4457 25.0482 182° South  Level Estimated
11:15AM 61.3332 25.0395 182° South  Level Estimated
11:16AM 61.2208 25.0308 182° South  Level Estimated
11:17AM 61.1084 25.0222 182° South  Level Estimated
11:18AM 60.9960 25.0137 182° South  Level Estimated
11:19AM 60.8836 25.0052 182° South  Level Estimated
11:20AM 60.7712 24.9968 182° South  Level Estimated
11:21AM 60.6588 24.9884 182° South  Level Estimated
11:22AM 60.5464 24.9801 182° South  Level Estimated
11:23AM 60.4340 24.9718 182° South  Level Estimated
11:24AM 60.3216 24.9636 182° South  Level Estimated
11:25AM 60.3172 24.9633 182° South  Level Estimated
11:26AM 60.3172 24.9633 37° Northeast  Level Estimated
11:27AM 60.3172 24.9633 37° Northeast  Level Estimated
11:28AM 60.3172 24.9633 37° Northeast  Level Estimated
11:29AM 60.3172 24.9633 37° Northeast  Level Estimated
11:30AM 60.3172 24.9633 37° Northeast  Level Estimated
11:31AM 60.3172 24.9633 37° Northeast  Level Estimated
11:32AM 60.3172 24.9633 37° Northeast  Level Estimated